バルセロナ の空港の天気 - METARとTAF

バルセロナ・エル・プラット国際空港 ( LEBL / BCN ) - スペイン バルセロナ
飛行場実況気象(Metar)
観測時間02/26 17:30 CET (02/26 16:30 UTC)
風向・風速南西 8m/s
視程10km以上
天気現象
少しの雲 雲底高度 610m
気温14℃
湿度77%
気圧1019hPa
METARLEBL 261630Z 22016KT 9999 FEW020 14/10 Q1019 NOSIG
過去の天気等 Google飛行場航空写真 Wunderground天気予報

過去48時間のMETAR

飛行場予報(TAF)
発表時間: 2/26 12:00 CET (2/26 11:00 UTC)
予報対象時間: 26日13時 CET ~ 27日13時 CET
風向・風速南西 6m/s
視程10km以上
少しの雲 雲底高度 760m
26日23時 CET ~ 27日9時 CET に 確率 30% で一時的に
風向・風速西北西 3m/s
26日22時 CET ~ 27日13時 CET に一時的に
全天の8割程度の雲 雲底高度 370m
TAF LEBL 261100Z 2612/2712 23012KT 9999 FEW025 TX16/2613Z TN10/2706Z
PROB30 TEMPO 2622/2708 29006KT
TEMPO 2621/2712 BKN012